createdAt,value
2018-04-02T00:01:04.484Z,6.20
2018-04-02T00:05:07.008Z,6.10
2018-04-02T00:09:16.469Z,6.10
2018-04-02T00:13:20.003Z,6.00
2018-04-02T00:17:23.545Z,6.00
2018-04-02T00:21:26.065Z,6.00
2018-04-02T00:25:28.621Z,5.90
2018-04-02T00:29:31.187Z,5.80
2018-04-02T00:33:34.516Z,5.90
2018-04-02T00:37:37.816Z,6.00
2018-04-02T00:41:40.469Z,6.00
2018-04-02T00:45:45.760Z,6.00
2018-04-02T00:49:48.323Z,6.00
2018-04-02T00:53:51.631Z,5.90
2018-04-02T00:57:54.272Z,5.80
2018-04-02T01:01:56.788Z,5.80
2018-04-02T01:05:59.386Z,5.80
2018-04-02T01:10:01.913Z,6.00
2018-04-02T01:14:04.880Z,5.90
2018-04-02T01:18:08.184Z,5.30
2018-04-02T01:22:10.729Z,5.20
2018-04-02T01:26:13.264Z,5.40
2018-04-02T01:30:15.820Z,5.30
2018-04-02T01:34:18.344Z,5.40
2018-04-02T01:38:21.682Z,5.10
2018-04-02T01:42:24.226Z,5.00
2018-04-02T01:46:27.833Z,5.00
2018-04-02T01:50:30.360Z,4.90
2018-04-02T01:54:32.919Z,4.90
2018-04-02T01:58:36.212Z,4.70
2018-04-02T02:02:38.778Z,4.60
2018-04-02T02:06:41.367Z,4.70
2018-04-02T02:10:43.923Z,4.60
2018-04-02T02:14:46.441Z,4.80
2018-04-02T02:18:50.288Z,4.70
2018-04-02T02:22:52.812Z,4.80
2018-04-02T02:26:56.362Z,4.80
2018-04-02T02:30:58.893Z,4.70
2018-04-02T02:35:02.481Z,4.70
2018-04-02T02:39:05.010Z,4.60
2018-04-02T02:43:07.555Z,4.70
2018-04-02T02:47:10.082Z,4.60
2018-04-02T02:51:12.724Z,4.60
2018-04-02T02:55:18.927Z,4.80
2018-04-02T02:59:21.504Z,4.80
2018-04-02T03:03:24.038Z,4.70
2018-04-02T03:07:26.593Z,4.80
2018-04-02T03:11:29.172Z,4.60
2018-04-02T03:15:31.804Z,4.60
2018-04-02T03:19:35.145Z,4.40
2018-04-02T03:23:37.721Z,4.30
2018-04-02T03:27:40.240Z,4.30
2018-04-02T03:31:43.633Z,4.40
2018-04-02T03:35:46.172Z,4.30
2018-04-02T03:39:48.721Z,4.20
2018-04-02T03:43:51.288Z,4.10
2018-04-02T03:47:54.608Z,3.80
2018-04-02T03:51:57.910Z,3.70
2018-04-02T03:56:01.443Z,3.70
2018-04-02T04:00:03.960Z,3.80
2018-04-02T04:04:07.397Z,3.80
2018-04-02T04:08:10.679Z,3.80
2018-04-02T04:12:13.236Z,3.80
2018-04-02T04:16:16.527Z,3.70
2018-04-02T04:20:19.124Z,3.60
2018-04-02T04:24:21.641Z,3.70
2018-04-02T04:28:24.193Z,3.60
2018-04-02T04:32:26.762Z,3.50
2018-04-02T04:36:30.403Z,3.70
2018-04-02T04:40:33.701Z,3.60
2018-04-02T04:44:36.264Z,3.50
2018-04-02T04:48:38.786Z,3.50
2018-04-02T04:52:42.344Z,3.40
2018-04-02T04:56:44.861Z,3.40
2018-04-02T05:00:47.416Z,3.40
2018-04-02T05:04:49.997Z,3.40
2018-04-02T05:08:52.677Z,3.40
2018-04-02T05:12:57.197Z,3.50
2018-04-02T05:16:59.755Z,3.50
2018-04-02T05:21:02.305Z,3.60
2018-04-02T05:25:04.948Z,3.60
2018-04-02T05:29:07.477Z,3.60
2018-04-02T05:33:10.803Z,3.70
2018-04-02T05:37:14.088Z,4.00
2018-04-02T05:41:16.636Z,4.00
2018-04-02T05:45:19.185Z,4.00
2018-04-02T05:49:21.738Z,3.70
2018-04-02T05:53:24.277Z,3.50
2018-04-02T05:57:26.849Z,3.50
2018-04-02T06:01:29.384Z,3.60
2018-04-02T06:05:32.036Z,3.60
2018-04-02T06:09:34.556Z,3.80
2018-04-02T06:13:38.184Z,4.00
2018-04-02T06:17:40.716Z,4.00
2018-04-02T06:21:44.112Z,4.30
2018-04-02T06:25:47.631Z,4.30
2018-04-02T06:29:50.188Z,4.40
2018-04-02T06:33:52.715Z,4.60
2018-04-02T06:37:55.277Z,4.90
2018-04-02T06:41:58.565Z,5.50
2018-04-02T06:46:03.070Z,5.40
2018-04-02T06:50:05.596Z,5.40
2018-04-02T06:54:08.149Z,5.40
2018-04-02T06:58:10.686Z,5.40
2018-04-02T07:02:13.689Z,5.50
2018-04-02T07:06:16.208Z,5.70
2018-04-02T07:10:18.757Z,5.80
2018-04-02T07:14:21.274Z,6.10
2018-04-02T07:18:23.844Z,6.20
2018-04-02T07:22:26.424Z,6.20
2018-04-02T07:26:30.336Z,6.20
2018-04-02T07:30:33.673Z,6.90
2018-04-02T07:34:37.289Z,7.00
2018-04-02T07:38:39.807Z,7.00
2018-04-02T07:42:43.312Z,7.10
2018-04-02T07:46:45.833Z,7.30
2018-04-02T07:50:48.572Z,7.30
2018-04-02T07:54:52.335Z,7.40
2018-04-02T07:58:55.990Z,9.00
2018-04-02T08:02:58.572Z,10.90
2018-04-02T08:07:01.990Z,10.50
2018-04-02T08:11:04.512Z,10.50
2018-04-02T08:15:07.081Z,11.00
2018-04-02T08:19:09.646Z,11.40
2018-04-02T08:23:12.268Z,12.90
2018-04-02T08:27:14.788Z,12.20
2018-04-02T08:31:18.115Z,12.20
2018-04-02T08:35:21.410Z,13.60
2018-04-02T08:39:23.963Z,13.50
2018-04-02T08:43:32.439Z,14.20
2018-04-02T08:47:34.998Z,14.10
2018-04-02T08:51:37.517Z,13.00
2018-04-02T08:55:40.115Z,12.80
2018-04-02T08:59:43.419Z,13.40
2018-04-02T09:03:46.433Z,13.40
2018-04-02T09:07:51.705Z,12.10
2018-04-02T09:11:54.294Z,12.10
2018-04-02T09:15:56.987Z,11.70
2018-04-02T09:19:59.893Z,11.20
2018-04-02T09:24:02.452Z,11.00
2018-04-02T09:28:05.053Z,11.60
2018-04-02T09:32:08.360Z,12.50
2018-04-02T09:36:11.001Z,12.50
2018-04-02T09:40:13.525Z,14.00
2018-04-02T09:44:17.062Z,14.50
2018-04-02T09:48:19.564Z,13.90
2018-04-02T09:52:22.121Z,13.20
2018-04-02T09:56:25.677Z,13.10
2018-04-02T10:00:33.896Z,14.50
2018-04-02T10:04:36.509Z,14.40
2018-04-02T10:08:39.748Z,14.50
2018-04-02T10:12:43.025Z,14.60
2018-04-02T10:16:45.988Z,14.50
2018-04-02T10:20:49.368Z,14.60
2018-04-02T10:24:52.019Z,14.50
2018-04-02T10:28:54.545Z,15.40
2018-04-02T10:32:57.100Z,15.60
2018-04-02T10:37:01.586Z,15.60
2018-04-02T10:41:05.409Z,15.60
2018-04-02T10:45:08.901Z,15.10
2018-04-02T10:49:12.077Z,14.40
2018-04-02T10:53:14.604Z,14.30
2018-04-02T10:57:17.171Z,14.20
2018-04-02T11:01:19.696Z,13.80
2018-04-02T11:05:25.459Z,13.90
2018-04-02T11:09:28.004Z,13.80
2018-04-02T11:13:30.816Z,14.10
2018-04-02T11:17:34.104Z,14.30
2018-04-02T11:21:36.658Z,14.20
2018-04-02T11:25:39.189Z,14.20
2018-04-02T11:29:44.907Z,14.10
2018-04-02T11:33:47.429Z,13.90
2018-04-02T11:37:50.020Z,14.00
2018-04-02T11:41:52.552Z,14.10
2018-04-02T11:45:56.107Z,14.20
2018-04-02T11:50:00.553Z,14.00
2018-04-02T11:54:03.178Z,13.80
2018-04-02T11:58:05.693Z,13.40
2018-04-02T12:02:12.330Z,13.30
2018-04-02T12:06:16.621Z,13.20
2018-04-02T12:10:19.205Z,13.30
2018-04-02T12:14:21.771Z,13.30
2018-04-02T12:18:24.714Z,13.30
2018-04-02T12:22:27.352Z,13.00
2018-04-02T12:26:31.084Z,13.00
2018-04-02T12:30:39.244Z,13.20
2018-04-02T12:34:42.800Z,13.10
2018-04-02T12:38:46.108Z,13.30
2018-04-02T12:42:48.652Z,13.30
2018-04-02T12:46:52.109Z,13.40
2018-04-02T12:50:55.518Z,13.70
2018-04-02T12:54:59.137Z,13.60
2018-04-02T12:59:01.762Z,13.70
2018-04-02T13:03:09.406Z,13.80
2018-04-02T13:07:11.978Z,13.90
2018-04-02T13:11:14.552Z,13.70
2018-04-02T13:15:18.093Z,13.60
2018-04-02T13:19:25.373Z,13.70
2018-04-02T13:23:28.214Z,13.70
2018-04-02T13:27:30.809Z,13.80
2018-04-02T13:31:33.376Z,13.90
2018-04-02T13:35:35.903Z,13.80
2018-04-02T13:39:38.464Z,13.70
2018-04-02T13:43:41.027Z,13.60
2018-04-02T13:47:43.564Z,13.80
2018-04-02T13:51:46.849Z,13.80
2018-04-02T13:55:49.429Z,13.70
2018-04-02T13:59:51.962Z,13.80
2018-04-02T14:03:55.520Z,13.90
2018-04-02T14:07:58.044Z,13.90
2018-04-02T14:12:01.362Z,13.90
2018-04-02T14:16:04.645Z,13.90
2018-04-02T14:20:08.197Z,13.80
2018-04-02T14:24:10.716Z,13.90
2018-04-02T14:28:14.082Z,13.80
2018-04-02T14:32:17.370Z,13.90
2018-04-02T14:36:20.026Z,13.80
2018-04-02T14:40:22.547Z,13.80
2018-04-02T14:44:32.241Z,13.80
2018-04-02T14:48:34.745Z,13.60
2018-04-02T14:52:37.293Z,13.60
2018-04-02T14:56:44.928Z,13.50
2018-04-02T15:00:48.414Z,13.50
2018-04-02T15:04:51.707Z,13.40
2018-04-02T15:08:54.340Z,13.30
2018-04-02T15:12:56.860Z,13.30
2018-04-02T15:17:00.262Z,13.40
2018-04-02T15:21:02.793Z,13.30
2018-04-02T15:25:06.719Z,13.40
2018-04-02T15:29:10.103Z,13.30
2018-04-02T15:33:12.633Z,13.20
2018-04-02T15:37:15.468Z,13.20
2018-04-02T15:41:19.902Z,13.20
2018-04-02T15:45:22.416Z,13.20
2018-04-02T15:49:25.245Z,13.10
2018-04-02T15:53:28.949Z,13.00
2018-04-02T15:57:32.464Z,12.90
2018-04-02T16:01:35.003Z,12.90
2018-04-02T16:05:37.660Z,12.90
2018-04-02T16:09:40.267Z,13.00
2018-04-02T16:13:43.914Z,12.90
2018-04-02T16:17:46.446Z,12.80
2018-04-02T16:21:49.876Z,12.80
2018-04-02T16:25:53.159Z,12.70
2018-04-02T16:29:55.785Z,12.60
2018-04-02T16:33:59.071Z,12.60
2018-04-02T16:38:02.700Z,12.60
2018-04-02T16:42:05.405Z,12.50
2018-04-02T16:46:07.961Z,12.50
2018-04-02T16:50:10.482Z,12.40
2018-04-02T16:54:16.764Z,12.40
2018-04-02T16:58:20.988Z,12.40
2018-04-02T17:02:29.332Z,12.40
2018-04-02T17:06:31.845Z,12.40
2018-04-02T17:10:34.489Z,12.30
2018-04-02T17:14:37.960Z,12.30
2018-04-02T17:18:40.527Z,12.30
2018-04-02T17:22:44.080Z,12.20
2018-04-02T17:26:46.716Z,12.20
2018-04-02T17:30:49.281Z,12.20
2018-04-02T17:34:52.265Z,12.10
2018-04-02T17:38:55.549Z,12.10
2018-04-02T17:42:58.188Z,12.10
2018-04-02T17:47:00.707Z,12.10
2018-04-02T17:51:03.356Z,12.10
2018-04-02T17:55:05.888Z,12.10
2018-04-02T17:59:10.524Z,12.00
2018-04-02T18:03:13.038Z,12.00
2018-04-02T18:07:15.885Z,11.90
2018-04-02T18:11:18.431Z,11.90
2018-04-02T18:15:20.997Z,11.90
2018-04-02T18:19:28.268Z,11.80
2018-04-02T18:23:31.137Z,11.80
2018-04-02T18:27:34.638Z,11.80
2018-04-02T18:31:37.668Z,11.90
2018-04-02T18:35:40.982Z,11.90
2018-04-02T18:39:43.649Z,11.90
2018-04-02T18:43:46.150Z,12.00
2018-04-02T18:47:49.004Z,12.00
2018-04-02T18:51:51.584Z,12.00
2018-04-02T18:55:54.123Z,12.00
2018-04-02T18:59:56.650Z,11.90
2018-04-02T19:03:59.228Z,11.80
2018-04-02T19:08:02.705Z,11.70
2018-04-02T19:12:05.574Z,11.60
2018-04-02T19:16:08.888Z,11.70
2018-04-02T19:20:11.720Z,11.60
2018-04-02T19:24:14.243Z,11.50
2018-04-02T19:28:17.713Z,11.50
2018-04-02T19:32:21.014Z,11.60
2018-04-02T19:36:23.872Z,11.50
2018-04-02T19:40:26.380Z,11.50
2018-04-02T19:44:28.920Z,11.50
2018-04-02T19:48:32.360Z,11.50
2018-04-02T19:52:34.904Z,11.50
2018-04-02T19:56:37.421Z,11.50
2018-04-02T20:00:42.677Z,11.60
2018-04-02T20:04:45.197Z,11.50
2018-04-02T20:08:48.504Z,11.50
2018-04-02T20:12:51.016Z,11.40
2018-04-02T20:16:53.568Z,11.40
2018-04-02T20:20:56.136Z,11.30
2018-04-02T20:25:01.389Z,11.20
2018-04-02T20:29:03.900Z,11.20
2018-04-02T20:33:07.413Z,11.20
2018-04-02T20:37:09.937Z,11.20
2018-04-02T20:41:12.476Z,11.20
2018-04-02T20:45:15.031Z,11.30
2018-04-02T20:49:20.286Z,11.20
2018-04-02T20:53:22.811Z,11.30
2018-04-02T20:57:26.414Z,11.30
2018-04-02T21:01:28.987Z,11.10
2018-04-02T21:05:32.457Z,11.10
2018-04-02T21:09:34.968Z,11.20
2018-04-02T21:13:37.598Z,11.20
2018-04-02T21:17:40.131Z,11.20
2018-04-02T21:21:43.479Z,11.10
2018-04-02T21:25:46.040Z,11.10
2018-04-02T21:29:48.721Z,11.10
2018-04-02T21:33:51.255Z,11.10
2018-04-02T21:37:54.912Z,11.00
2018-04-02T21:41:57.447Z,11.00
2018-04-02T21:46:03.361Z,11.00
2018-04-02T21:50:05.905Z,11.00
2018-04-02T21:54:08.487Z,10.90
2018-04-02T21:58:16.950Z,11.00
2018-04-02T22:02:19.512Z,11.00
2018-04-02T22:06:33.796Z,11.00
2018-04-02T22:10:36.348Z,11.10
2018-04-02T22:14:38.937Z,10.90
2018-04-02T22:18:42.547Z,10.70
2018-04-02T22:22:45.111Z,10.60
2018-04-02T22:26:48.902Z,10.80
2018-04-02T22:30:55.552Z,10.80
2018-04-02T22:34:58.096Z,10.80
2018-04-02T22:39:00.636Z,10.80
2018-04-02T22:43:03.218Z,10.70
2018-04-02T22:47:05.731Z,10.70
2018-04-02T22:51:08.636Z,10.70
2018-04-02T22:55:11.154Z,10.70
2018-04-02T22:59:14.543Z,10.80
2018-04-02T23:03:17.074Z,10.70
2018-04-02T23:07:20.416Z,10.70
2018-04-02T23:11:23.700Z,10.60
2018-04-02T23:15:26.597Z,10.60
2018-04-02T23:19:29.139Z,10.70
2018-04-02T23:23:32.449Z,10.60
2018-04-02T23:27:34.973Z,10.50
2018-04-02T23:31:38.345Z,10.60
2018-04-02T23:35:40.999Z,10.60
2018-04-02T23:39:43.536Z,10.70
2018-04-02T23:43:46.050Z,10.60
2018-04-02T23:47:48.592Z,10.60
2018-04-02T23:51:51.104Z,10.50
2018-04-02T23:55:53.643Z,10.40
2018-04-02T23:59:56.165Z,10.50
